Time;durP1;ratioP1;P1;durP2;ratioP2;P2;SDS_P1;SDS_P2;PMS_P1;PMS_P2;Temp;Humidity;BMP_temperature;BMP_pressure;BME280_temperature;BME280_humidity;BME280_pressure;Samples;Min_cycle;Max_cycle;Signal;HPM_P1;HPM_P2
2023/12/29 00:01:47;;;;;;;20.05;12.27;;;;;;;1.51;100.00;101146.25;5033150;28;20377;-70
2023/12/29 00:04:12;;;;;;;21.00;12.52;;;;;;;1.88;100.00;101199.31;5033157;28;20034;-70
2023/12/29 00:06:39;;;;;;;24.05;12.68;;;;;;;1.93;100.00;101206.59;5032986;28;20064;-71
2023/12/29 00:09:04;;;;;;;21.77;12.98;;;;;;;1.74;100.00;101175.25;5032869;28;20104;-74
2023/12/29 00:11:30;;;;;;;19.35;11.70;;;;;;;1.83;100.00;101206.56;5032803;28;20472;-73
2023/12/29 00:13:55;;;;;;;20.38;11.20;;;;;;;1.80;100.00;101216.50;5032413;28;20048;-70
2023/12/29 00:16:21;;;;;;;19.17;11.95;;;;;;;1.82;100.00;101225.19;5032613;28;20053;-70
2023/12/29 00:18:47;;;;;;;36.47;17.42;;;;;;;1.81;100.00;101213.22;5032831;28;20063;-72
2023/12/29 00:21:12;;;;;;;31.85;17.13;;;;;;;1.72;100.00;101207.31;5032679;28;20061;-72
2023/12/29 00:23:38;;;;;;;24.45;12.65;;;;;;;1.75;100.00;101212.69;5032617;28;20079;-73
2023/12/29 00:26:03;;;;;;;24.23;12.73;;;;;;;1.64;100.00;101221.97;5032459;28;20021;-75
2023/12/29 00:28:29;;;;;;;22.00;12.52;;;;;;;1.36;100.00;101211.97;5032421;28;20122;-72
2023/12/29 00:30:54;;;;;;;21.67;12.95;;;;;;;1.19;100.00;101190.16;5032188;28;20086;-73
2023/12/29 00:33:20;;;;;;;25.27;14.35;;;;;;;1.35;100.00;101187.28;5032422;28;20072;-72
2023/12/29 00:35:45;;;;;;;24.83;14.23;;;;;;;1.67;100.00;101214.59;5032216;28;20420;-73
2023/12/29 00:38:11;;;;;;;24.25;13.73;;;;;;;1.71;100.00;101198.81;5032518;28;20029;-72
2023/12/29 00:40:36;;;;;;;23.65;13.98;;;;;;;1.91;100.00;101218.31;5032420;28;20606;-71
2023/12/29 00:43:02;;;;;;;23.25;13.68;;;;;;;1.90;100.00;101211.41;5025096;28;20033;-70
2023/12/29 00:45:32;;;;;;;24.08;13.07;;;;;;;1.94;100.00;101227.84;5011942;28;20033;-70
2023/12/29 00:47:59;;;;;;;22.92;14.45;;;;;;;1.80;100.00;101218.19;5027441;28;20033;-71
2023/12/29 00:50:26;;;;;;;22.15;14.02;;;;;;;1.89;100.00;101206.22;5031994;28;20108;-71
2023/12/29 00:52:51;;;;;;;24.10;13.00;;;;;;;2.00;100.00;101222.41;5161112;22;20060;-70
2023/12/29 00:55:17;;;;;;;22.38;13.10;;;;;;;1.95;100.00;101216.91;5030705;28;20079;-72
2023/12/29 00:57:42;;;;;;;22.42;12.85;;;;;;;1.87;100.00;101218.81;5032246;28;20029;-70
2023/12/29 01:00:11;;;;;;;22.67;13.25;;;;;;;1.61;100.00;101186.09;5032160;28;20563;-71
2023/12/29 01:02:37;;;;;;;22.85;13.45;;;;;;;1.62;100.00;101210.78;5031480;28;20083;-70
2023/12/29 01:05:03;;;;;;;23.85;13.50;;;;;;;1.63;100.00;101212.53;5032052;28;20033;-72
2023/12/29 01:07:28;;;;;;;21.50;13.48;;;;;;;1.76;100.00;101219.56;5032152;28;20080;-71
2023/12/29 01:09:54;;;;;;;27.65;13.55;;;;;;;1.72;100.00;101231.16;5031688;28;20455;-73
2023/12/29 01:12:19;;;;;;;25.83;13.82;;;;;;;1.65;100.00;101220.31;5031657;28;20040;-72
2023/12/29 01:14:45;;;;;;;21.80;12.32;;;;;;;1.71;100.00;101209.00;5032161;28;20056;-71
2023/12/29 01:17:10;;;;;;;23.58;12.70;;;;;;;1.76;100.00;101205.19;5031852;28;20033;-71
2023/12/29 01:19:36;;;;;;;23.48;13.50;;;;;;;1.72;100.00;101202.22;5031899;28;20551;-71
2023/12/29 01:22:01;;;;;;;23.10;14.05;;;;;;;1.40;100.00;101144.44;5031846;28;20029;-71
2023/12/29 01:24:26;;;;;;;23.08;14.07;;;;;;;1.69;100.00;101199.44;5031854;28;20025;-70
2023/12/29 01:26:52;;;;;;;22.27;12.95;;;;;;;1.38;100.00;101174.81;5031829;28;20103;-70
2023/12/29 01:29:17;;;;;;;24.67;12.77;;;;;;;1.33;100.00;101171.00;5031698;28;20116;-70
2023/12/29 01:31:43;;;;;;;21.13;13.40;;;;;;;1.11;100.00;101184.44;5031457;28;20069;-71
2023/12/29 01:34:08;;;;;;;24.67;14.77;;;;;;;0.74;100.00;101180.34;5031288;28;20468;-70
2023/12/29 01:36:34;;;;;;;25.60;14.82;;;;;;;0.37;100.00;101142.41;5031411;28;20143;-70
2023/12/29 01:39:00;;;;;;;23.10;15.23;;;;;;;0.78;100.00;101182.38;5031543;28;20025;-70
2023/12/29 01:41:26;;;;;;;28.92;15.07;;;;;;;0.96;100.00;101178.91;5012453;28;20484;-71
2023/12/29 01:43:57;;;;;;;28.48;14.80;;;;;;;1.10;100.00;101182.63;5031322;28;20040;-73
2023/12/29 01:46:25;;;;;;;25.77;14.30;;;;;;;1.09;100.00;101169.81;5030633;28;20606;-72
2023/12/29 01:48:52;;;;;;;23.50;14.23;;;;;;;0.70;100.00;101095.31;5031095;28;20580;-71
2023/12/29 01:51:20;;;;;;;26.10;13.68;;;;;;;0.68;100.00;101108.66;5031274;28;20100;-70
2023/12/29 01:53:47;;;;;;;24.65;13.88;;;;;;;0.45;100.00;101105.00;5031047;28;20057;-71
2023/12/29 01:56:14;;;;;;;23.88;13.70;;;;;;;0.80;100.00;101165.63;5031281;28;20392;-75
2023/12/29 01:58:39;;;;;;;24.30;13.68;;;;;;;0.84;100.00;101156.63;5031067;28;20460;-70
2023/12/29 02:01:06;;;;;;;23.10;13.70;;;;;;;0.89;100.00;101141.00;5031230;28;20116;-74
2023/12/29 02:03:33;;;;;;;21.48;13.13;;;;;;;1.07;100.00;101141.72;5031131;28;20068;-71
2023/12/29 02:05:59;;;;;;;20.77;13.15;;;;;;;1.08;100.00;101150.22;5031161;28;20049;-70
2023/12/29 02:08:25;;;;;;;23.33;14.23;;;;;;;0.87;100.00;101136.53;5029546;28;20452;-70
2023/12/29 02:10:51;;;;;;;22.15;13.68;;;;;;;0.82;100.00;101142.88;5029744;28;20021;-71
2023/12/29 02:13:16;;;;;;;24.08;13.18;;;;;;;0.84;100.00;101146.47;5028981;28;20039;-70
2023/12/29 02:15:45;;;;;;;26.75;16.02;;;;;;;0.93;100.00;101149.78;5030171;28;20112;-71
2023/12/29 02:18:16;;;;;;;25.80;14.17;;;;;;;1.01;100.00;101143.72;5038083;28;20526;-71
2023/12/29 02:20:43;;;;;;;24.55;12.85;;;;;;;0.63;100.00;101075.22;5050849;28;20029;-71
2023/12/29 02:23:10;;;;;;;22.52;13.80;;;;;;;1.05;100.00;101132.16;5051075;28;20454;-70
2023/12/29 02:25:36;;;;;;;21.73;12.88;;;;;;;1.19;100.00;101135.88;5050668;28;20025;-69
2023/12/29 02:28:15;;;;;;;28.13;15.10;;;;;;;1.20;100.00;101132.59;5050519;28;20048;-70
2023/12/29 02:30:49;;;;;;;23.08;13.85;;;;;;;1.25;100.00;101133.88;5050590;28;20025;-71
2023/12/29 02:33:19;;;;;;;20.73;12.85;;;;;;;1.17;100.00;101117.94;5050516;28;20450;-71
2023/12/29 02:36:05;;;;;;;20.08;12.73;;;;;;;1.23;100.00;101130.28;5050542;28;20029;-71
2023/12/29 02:38:31;;;;;;;24.42;13.70;;;;;;;1.28;100.00;101126.47;5027550;28;20050;-71
2023/12/29 02:40:56;;;;;;;25.30;13.65;;;;;;;1.30;100.00;101109.69;5027818;28;20038;-71
2023/12/29 02:43:22;;;;;;;23.25;13.82;;;;;;;0.89;100.00;101043.53;5018800;28;20499;-70
2023/12/29 02:45:47;;;;;;;24.40;13.35;;;;;;;1.29;100.00;101118.09;5007581;28;20042;-76
2023/12/29 02:48:13;;;;;;;23.73;13.80;;;;;;;1.11;100.00;101099.63;5008054;28;20500;-70
2023/12/29 02:50:38;;;;;;;22.27;12.90;;;;;;;0.99;100.00;101114.72;5007814;28;20028;-70
2023/12/29 02:53:04;;;;;;;24.92;13.77;;;;;;;0.99;100.00;101124.00;5007574;28;20578;-74
2023/12/29 02:55:30;;;;;;;23.70;13.27;;;;;;;0.92;100.00;101118.41;4991512;28;20050;-70
2023/12/29 02:57:55;;;;;;;27.07;14.03;;;;;;;0.62;100.00;101127.69;5007832;28;20113;-70
2023/12/29 03:00:21;;;;;;;23.73;13.65;;;;;;;0.61;100.00;101132.63;5008151;28;20411;-71
2023/12/29 03:02:46;;;;;;;24.60;14.70;;;;;;;0.58;100.00;101091.72;5007895;28;20038;-71
2023/12/29 03:05:12;;;;;;;25.40;14.87;;;;;;;0.74;100.00;101106.66;5007627;28;20042;-71
2023/12/29 03:07:39;;;;;;;22.58;14.00;;;;;;;0.64;100.00;101085.50;5007336;28;20393;-70
2023/12/29 03:10:05;;;;;;;30.77;15.27;;;;;;;0.84;100.00;101113.41;5024084;28;20140;-73
2023/12/29 03:12:31;;;;;;;26.55;15.25;;;;;;;0.88;100.00;101112.91;5029788;28;20071;-70
2023/12/29 03:14:56;;;;;;;24.75;14.05;;;;;;;0.93;100.00;101117.63;5030035;28;20057;-70
2023/12/29 03:17:22;;;;;;;22.33;13.90;;;;;;;0.96;100.00;101128.06;5026125;28;20112;-69
2023/12/29 03:19:47;;;;;;;24.08;14.52;;;;;;;0.96;100.00;101117.00;5027753;28;20044;-70
2023/12/29 03:22:13;;;;;;;22.97;13.60;;;;;;;0.59;100.00;101126.53;5029906;28;20044;-70
2023/12/29 03:24:41;;;;;;;25.97;13.87;;;;;;;0.23;100.00;101115.78;5029949;28;20029;-70
2023/12/29 03:27:06;;;;;;;23.80;14.40;;;;;;;0.28;100.00;101117.09;5033081;28;20068;-69
2023/12/29 03:29:32;;;;;;;24.37;14.30;;;;;;;0.12;100.00;101112.28;5033558;28;20545;-70
2023/12/29 03:31:57;;;;;;;23.03;14.40;;;;;;;-0.79;100.00;101017.91;5033711;28;20025;-70
2023/12/29 03:34:23;;;;;;;27.57;15.17;;;;;;;-0.72;100.00;101091.25;5033326;28;20100;-68
2023/12/29 03:36:48;;;;;;;22.40;14.03;;;;;;;-0.75;100.00;101105.28;5033350;28;20025;-69
2023/12/29 03:39:14;;;;;;;30.80;15.93;;;;;;;-0.65;100.00;101110.44;5033436;28;20395;-69
2023/12/29 03:41:39;;;;;;;25.37;14.40;;;;;;;-0.48;100.00;101083.22;5033338;28;20095;-71
2023/12/29 03:44:06;;;;;;;24.73;15.57;;;;;;;-0.23;100.00;101101.53;5033078;28;20037;-72
2023/12/29 03:46:32;;;;;;;31.67;16.00;;;;;;;-0.10;100.00;101098.44;5033296;28;20033;-70
2023/12/29 03:48:58;;;;;;;25.33;15.50;;;;;;;-0.01;100.00;101102.69;5033374;28;20523;-70
2023/12/29 03:51:25;;;;;;;28.47;14.77;;;;;;;0.14;100.00;101105.72;5033515;28;20112;-70
2023/12/29 03:53:51;;;;;;;28.07;15.50;;;;;;;0.31;100.00;101103.75;5031622;28;20470;-71
2023/12/29 03:56:18;;;;;;;25.87;15.13;;;;;;;0.34;100.00;101100.59;5033132;28;20110;-71
2023/12/29 03:58:47;;;;;;;26.43;14.70;;;;;;;0.28;100.00;101112.00;5033088;28;20076;-70
2023/12/29 04:01:17;;;;;;;26.08;14.70;;;;;;;0.28;100.00;101114.56;5033192;28;20029;-71
2023/12/29 04:03:42;;;;;;;;;;;;;;;0.28;100.00;101121.28;5033315;28;20041;-72
2023/12/29 04:06:08;;;;;;;24.40;14.23;;;;;;;0.28;100.00;101118.75;5032792;28;20354;-70
2023/12/29 04:08:34;;;;;;;27.80;14.07;;;;;;;0.28;100.00;101122.16;5032929;28;20033;-71
2023/12/29 04:11:00;;;;;;;22.07;13.70;;;;;;;0.19;100.00;101095.97;5032978;28;20116;-70
2023/12/29 04:13:26;;;;;;;25.87;14.00;;;;;;;0.27;100.00;101106.81;5032857;28;20083;-70
2023/12/29 04:15:52;;;;;;;20.90;13.47;;;;;;;0.32;100.00;101129.31;5032663;28;20022;-71
2023/12/29 04:18:18;;;;;;;22.73;13.93;;;;;;;0.22;100.00;101111.47;5013803;28;20033;-71
2023/12/29 04:20:43;;;;;;;26.20;14.93;;;;;;;0.32;100.00;101118.25;5032135;28;20029;-70
2023/12/29 04:23:09;;;;;;;23.63;14.40;;;;;;;-0.04;100.00;101046.59;5030626;28;20021;-69
2023/12/29 04:25:34;;;;;;;24.00;15.13;;;;;;;0.30;100.00;101104.56;5032251;28;20025;-71
2023/12/29 04:28:00;;;;;;;23.47;14.70;;;;;;;-0.02;100.00;101036.56;5032787;28;20396;-71
2023/12/29 04:30:26;;;;;;;24.73;14.13;;;;;;;0.39;100.00;101092.66;5032548;28;20399;-71
2023/12/29 04:32:51;;;;;;;24.17;14.57;;;;;;;0.43;100.00;101116.66;5032256;28;20738;-71
2023/12/29 04:35:17;;;;;;;23.10;14.27;;;;;;;0.41;100.00;101111.47;5032018;28;20021;-70
2023/12/29 04:37:49;;;;;;;24.13;14.18;;;;;;;0.31;100.00;101091.97;5031385;28;20029;-70
2023/12/29 04:40:14;;;;;;;27.47;15.17;;;;;;;0.45;100.00;101107.53;5032371;28;20083;-70
2023/12/29 04:42:40;;;;;;;27.43;15.43;;;;;;;0.41;100.00;101100.38;5032470;28;20406;-71
2023/12/29 04:45:06;;;;;;;29.50;15.70;;;;;;;0.27;100.00;101100.06;5032210;28;20028;-71
2023/12/29 04:47:34;;;;;;;25.93;14.80;;;;;;;0.17;100.00;101092.41;5030484;28;20167;-70
2023/12/29 04:50:00;;;;;;;25.23;15.33;;;;;;;-0.31;100.00;101006.97;5031991;28;20033;-72
2023/12/29 04:52:26;;;;;;;24.27;13.97;;;;;;;0.22;100.00;101106.38;5031897;28;20030;-70
2023/12/29 04:54:52;;;;;;;22.57;14.00;;;;;;;0.21;100.00;101083.41;5032055;28;20049;-73
2023/12/29 04:57:19;;;;;;;21.53;13.93;;;;;;;0.18;100.00;101076.41;5029421;28;20507;-74
2023/12/29 04:59:46;;;;;;;24.00;15.57;;;;;;;0.25;100.00;101091.44;5031795;28;20033;-69
2023/12/29 05:02:11;;;;;;;23.50;15.40;;;;;;;0.17;100.00;101071.22;5031502;28;20033;-70
2023/12/29 05:04:38;;;;;;;28.27;15.70;;;;;;;0.25;100.00;101083.81;5031699;28;20411;-70
2023/12/29 05:07:05;;;;;;;25.77;16.00;;;;;;;0.07;100.00;101072.03;5031502;28;20034;-69
2023/12/29 05:09:31;;;;;;;24.57;14.87;;;;;;;-0.03;100.00;101078.81;5031553;28;20468;-69
2023/12/29 05:11:56;;;;;;;23.23;14.70;;;;;;;-0.36;100.00;101026.84;5031488;28;20032;-70
2023/12/29 05:14:22;;;;;;;26.40;15.40;;;;;;;-0.02;100.00;101098.38;5030437;28;20408;-70
2023/12/29 05:16:47;;;;;;;28.10;15.37;;;;;;;-0.04;100.00;101096.47;5031425;28;20029;-70
2023/12/29 05:19:14;;;;;;;25.80;15.17;;;;;;;-0.08;100.00;101092.75;5030657;28;20025;-70
2023/12/29 05:21:39;;;;;;;27.67;14.70;;;;;;;-0.04;100.00;101091.38;5030830;28;20163;-70
2023/12/29 05:24:05;;;;;;;26.40;14.67;;;;;;;0.03;100.00;101092.84;5031353;28;20112;-72
2023/12/29 05:26:31;;;;;;;25.50;14.30;;;;;;;-0.17;100.00;101044.59;5031721;28;20026;-70
2023/12/29 05:28:57;;;;;;;26.83;15.67;;;;;;;0.02;100.00;101094.47;5031417;28;20040;-69
2023/12/29 05:31:22;;;;;;;25.07;15.90;;;;;;;-0.19;100.00;101101.97;5031279;28;20025;-70
2023/12/29 05:33:48;;;;;;;24.17;15.73;;;;;;;-0.45;100.00;101098.69;5031517;28;20038;-71
2023/12/29 05:36:14;;;;;;;28.33;14.53;;;;;;;-0.48;100.00;101099.31;5031179;28;20032;-77
2023/12/29 05:38:41;;;;;;;27.17;16.60;;;;;;;-0.40;100.00;101100.00;5031256;28;20057;-75
2023/12/29 05:41:06;;;;;;;28.27;15.47;;;;;;;-0.38;100.00;101088.34;5031505;28;20040;-71
2023/12/29 05:43:33;;;;;;;24.97;15.00;;;;;;;-0.45;100.00;101076.75;5031358;28;20025;-71
2023/12/29 05:45:59;;;;;;;30.73;15.70;;;;;;;-0.89;100.00;101022.88;5031160;28;20029;-71
2023/12/29 05:48:25;;;;;;;30.13;16.07;;;;;;;-0.45;100.00;101108.84;5031068;28;20033;-70
2023/12/29 05:50:51;;;;;;;32.53;17.97;;;;;;;-0.41;100.00;101103.28;5028622;28;20033;-70
2023/12/29 05:53:18;;;;;;;35.60;20.87;;;;;;;-0.44;100.00;101096.28;5030716;28;20042;-70
2023/12/29 05:55:44;;;;;;;45.23;26.37;;;;;;;-0.76;100.00;101013.13;5031022;28;20028;-71
2023/12/29 05:58:10;;;;;;;34.03;21.13;;;;;;;-0.14;100.00;101104.00;5030892;28;20630;-71
2023/12/29 06:00:39;;;;;;;24.43;15.83;;;;;;;0.00;100.00;101098.53;5030934;28;20101;-70
2023/12/29 06:03:05;;;;;;;26.48;16.98;;;;;;;0.07;100.00;101108.44;5011951;28;20049;-73
2023/12/29 06:05:31;;;;;;;33.43;18.63;;;;;;;0.11;100.00;101113.06;5030521;28;20025;-76
2023/12/29 06:07:57;;;;;;;35.50;17.57;;;;;;;0.17;100.00;101109.28;5029813;28;20392;-72
2023/12/29 06:10:22;;;;;;;31.20;16.77;;;;;;;0.20;100.00;101113.00;5029836;28;20040;-71
2023/12/29 06:12:48;;;;;;;27.63;16.53;;;;;;;0.26;100.00;101108.47;5030460;28;20029;-72
2023/12/29 06:15:16;;;;;;;23.43;15.13;;;;;;;0.22;100.00;101123.28;5030023;28;20061;-73
2023/12/29 06:17:43;;;;;;;25.73;16.13;;;;;;;0.04;100.00;101123.44;5019631;28;20139;-71
2023/12/29 06:20:10;;;;;;;27.40;16.47;;;;;;;-0.06;100.00;101124.25;5027732;28;20538;-70
2023/12/29 06:22:40;;;;;;;27.50;16.50;;;;;;;-0.13;100.00;101105.78;5030215;28;20084;-70
2023/12/29 06:25:10;;;;;;;29.33;17.10;;;;;;;0.01;100.00;101123.13;5030047;28;20547;-72
2023/12/29 06:27:39;;;;;;;26.40;16.27;;;;;;;0.15;100.00;101120.19;5030167;28;20037;-71
2023/12/29 06:30:06;;;;;;;30.43;16.60;;;;;;;-0.25;100.00;101042.13;5030130;28;20028;-69
2023/12/29 06:32:32;;;;;;;29.90;17.53;;;;;;;0.32;100.00;101125.88;5029986;28;20034;-69
2023/12/29 06:34:57;;;;;;;34.37;18.83;;;;;;;0.43;100.00;101119.22;5028909;28;20087;-70
2023/12/29 06:37:23;;;;;;;167.20;56.80;;;;;;;0.46;100.00;101124.53;5030290;28;20033;-70
2023/12/29 06:39:48;;;;;;;81.10;33.67;;;;;;;0.37;100.00;101105.97;5028626;28;20399;-72
2023/12/29 06:42:14;;;;;;;54.10;26.97;;;;;;;0.37;100.00;101117.00;5030005;28;20104;-70
2023/12/29 06:44:39;;;;;;;42.03;21.60;;;;;;;0.32;100.00;101118.25;5029971;28;20104;-68
2023/12/29 06:47:06;;;;;;;38.63;22.60;;;;;;;0.37;100.00;101111.94;5029659;28;20022;-70
2023/12/29 06:49:34;;;;;;;44.63;26.37;;;;;;;0.47;100.00;101106.91;5029952;28;20037;-71
2023/12/29 06:52:02;;;;;;;37.40;21.38;;;;;;;0.55;100.00;101097.41;5030009;28;20053;-71
2023/12/29 06:54:29;;;;;;;39.47;21.70;;;;;;;0.63;100.00;101096.41;5029774;28;20064;-71
2023/12/29 06:56:54;;;;;;;36.63;22.10;;;;;;;0.17;100.00;101005.19;5029776;28;20021;-69
2023/12/29 06:59:20;;;;;;;36.63;21.00;;;;;;;0.57;100.00;101089.94;5029881;28;20096;-75
2023/12/29 07:01:46;;;;;;;31.60;20.23;;;;;;;0.61;100.00;101092.88;5032089;28;20032;-70
2023/12/29 07:04:12;;;;;;;34.40;19.93;;;;;;;0.72;100.00;101103.94;5033352;28;20104;-67
2023/12/29 07:06:38;;;;;;;35.45;21.23;;;;;;;0.73;100.00;101093.03;5033593;28;20068;-71
2023/12/29 07:09:04;;;;;;;31.43;20.50;;;;;;;0.74;100.00;101107.53;5033844;28;20037;-70
2023/12/29 07:11:29;;;;;;;31.10;20.45;;;;;;;0.78;100.00;101107.00;5024107;28;20599;-73
2023/12/29 07:13:55;;;;;;;34.88;17.63;;;;;;;0.88;100.00;101115.44;5033256;28;20025;-71
2023/12/29 07:16:22;;;;;;;29.67;18.20;;;;;;;0.98;100.00;101104.44;5033581;28;20476;-70
2023/12/29 07:18:48;;;;;;;28.58;17.52;;;;;;;1.07;100.00;101095.03;5033684;28;20017;-70
2023/12/29 07:21:15;;;;;;;26.77;18.03;;;;;;;1.20;100.00;101108.03;5033420;28;20468;-71
2023/12/29 07:23:41;;;;;;;24.63;16.80;;;;;;;1.27;100.00;101109.44;5033030;28;20492;-73
2023/12/29 07:26:06;;;;;;;28.43;17.70;;;;;;;1.03;100.00;101105.72;5014453;28;20041;-76
2023/12/29 07:28:32;;;;;;;26.63;17.97;;;;;;;0.83;100.00;101104.00;5033374;28;20032;-70
2023/12/29 07:30:58;;;;;;;28.67;17.67;;;;;;;0.92;100.00;101102.25;5033319;28;20392;-70
2023/12/29 07:33:24;;;;;;;36.50;18.35;;;;;;;1.09;100.00;101111.31;5033084;28;20069;-69
2023/12/29 07:35:50;;;;;;;31.88;18.20;;;;;;;1.24;100.00;101112.59;5033011;28;20028;-70
2023/12/29 07:38:15;;;;;;;30.03;18.53;;;;;;;1.35;100.00;101121.16;5033389;28;20032;-70
2023/12/29 07:40:41;;;;;;;34.97;19.30;;;;;;;1.53;100.00;101113.28;5033121;28;20018;-69
2023/12/29 07:43:07;;;;;;;29.25;18.13;;;;;;;1.54;100.00;101098.13;5033010;28;20079;-72
2023/12/29 07:45:32;;;;;;;27.05;16.45;;;;;;;1.73;100.00;101115.84;5032870;28;20315;-71
2023/12/29 07:47:58;;;;;;;26.83;16.23;;;;;;;1.80;100.00;101118.88;5032589;28;20143;-71
2023/12/29 07:50:23;;;;;;;29.40;16.95;;;;;;;1.90;100.00;101109.56;5032521;28;20480;-70
2023/12/29 07:52:49;;;;;;;27.60;17.30;;;;;;;1.78;100.00;101062.72;5029926;28;20044;-71
2023/12/29 07:55:16;;;;;;;29.08;17.50;;;;;;;2.21;100.00;101108.66;5032424;28;20052;-73
2023/12/29 07:57:43;;;;;;;27.65;17.33;;;;;;;2.36;100.00;101114.97;5032748;28;20033;-73
2023/12/29 08:00:09;;;;;;;28.20;17.50;;;;;;;2.55;100.00;101114.75;5032662;28;20021;-71
2023/12/29 08:02:35;;;;;;;26.48;17.63;;;;;;;2.41;100.00;101102.59;5032621;28;20030;-73
2023/12/29 08:05:01;;;;;;;34.20;20.77;;;;;;;2.35;100.00;101084.25;4996975;28;20077;-71
2023/12/29 08:07:27;;;;;;;30.80;19.13;;;;;;;2.59;100.00;101111.72;5032636;28;20033;-71
2023/12/29 08:10:12;;;;;;;31.63;19.27;;;;;;;2.86;100.00;101108.66;5001234;28;20042;-72
2023/12/29 08:12:38;;;;;;;29.83;18.13;;;;;;;3.03;100.00;101115.09;5000243;28;20417;-71
2023/12/29 08:15:03;;;;;;;29.20;19.80;;;;;;;2.43;100.00;100986.38;4999225;28;20057;-73
2023/12/29 08:17:31;;;;;;;29.52;19.23;;;;;;;3.17;100.00;101095.72;5001499;28;20034;-72
2023/12/29 08:19:56;;;;;;;32.80;18.60;;;;;;;3.32;100.00;101117.31;4983774;28;20042;-71
2023/12/29 08:22:22;;;;;;;31.38;19.42;;;;;;;3.34;100.00;101120.88;4999372;28;20079;-71
2023/12/29 08:24:47;;;;;;;28.92;18.63;;;;;;;3.16;100.00;101058.22;5001087;28;20041;-70
2023/12/29 08:27:13;;;;;;;26.35;17.48;;;;;;;3.70;100.00;101127.00;4999679;28;20117;-70
2023/12/29 08:29:41;;;;;;;31.65;18.80;;;;;;;3.79;100.00;101114.00;5001280;28;20039;-73
2023/12/29 08:32:07;;;;;;;31.58;20.27;;;;;;;4.07;100.00;101120.28;4998564;28;20041;-71
2023/12/29 08:34:37;;;;;;;41.47;24.75;;;;;;;4.19;100.00;101113.50;4958979;28;20057;-73
2023/12/29 08:37:05;;;;;;;80.95;59.60;;;;;;;3.86;100.00;101034.53;4990711;28;20101;-72
2023/12/29 08:39:31;;;;;;;163.55;118.30;;;;;;;4.35;100.00;101100.19;5006696;28;20120;-72
2023/12/29 08:41:56;;;;;;;140.63;103.30;;;;;;;4.48;100.00;101107.06;5025677;28;20448;-70
2023/12/29 08:44:22;;;;;;;90.13;66.32;;;;;;;4.63;100.00;101108.13;5029663;28;20051;-71
2023/12/29 08:46:48;;;;;;;35.15;22.40;;;;;;;4.79;100.00;101107.56;5030913;28;20030;-75
2023/12/29 08:49:13;;;;;;;31.98;22.13;;;;;;;4.88;100.00;101099.63;5028681;28;20082;-71
2023/12/29 08:51:40;;;;;;;28.98;18.85;;;;;;;4.99;100.00;101098.72;5030224;28;20091;-72
2023/12/29 08:54:05;;;;;;;32.17;19.80;;;;;;;4.97;100.00;101097.75;5031415;28;20056;-71
2023/12/29 08:56:31;;;;;;;24.92;17.38;;;;;;;5.09;100.00;101092.56;5030529;28;20037;-72
2023/12/29 08:58:58;;;;;;;28.50;18.45;;;;;;;5.12;100.00;101084.22;5029389;28;20032;-71
2023/12/29 09:01:23;;;;;;;30.92;19.88;;;;;;;5.21;100.00;101092.53;5028687;28;20495;-71
2023/12/29 09:03:49;;;;;;;31.05;20.15;;;;;;;5.21;100.00;101064.38;5026584;28;20041;-73
2023/12/29 09:06:15;;;;;;;29.15;18.73;;;;;;;5.49;100.00;101076.47;5029640;28;20036;-71
2023/12/29 09:08:41;;;;;;;29.27;19.02;;;;;;;5.41;100.00;101017.06;5028519;28;20080;-74
2023/12/29 09:11:06;;;;;;;30.00;19.13;;;;;;;5.89;100.00;101068.84;5030974;28;20664;-74
2023/12/29 09:13:32;;;;;;;32.33;18.25;;;;;;;5.94;100.00;101059.81;5031216;28;20506;-73
2023/12/29 09:15:58;;;;;;;29.92;18.85;;;;;;;5.65;100.00;100989.63;5031348;28;20037;-73
2023/12/29 09:18:24;;;;;;;26.52;16.88;;;;;;;6.27;100.00;101059.38;5031664;28;20026;-70
2023/12/29 09:20:50;;;;;;;27.10;19.10;;;;;;;6.39;100.00;101043.84;5031689;28;20029;-70
2023/12/29 09:23:16;;;;;;;28.13;17.75;;;;;;;6.53;100.00;101053.31;5030659;28;20037;-71
2023/12/29 09:25:41;;;;;;;25.15;16.65;;;;;;;6.73;100.00;101053.66;5031422;28;20527;-71
2023/12/29 09:28:07;;;;;;;23.33;15.25;;;;;;;6.52;100.00;100991.63;5031064;28;20021;-71
2023/12/29 09:30:32;;;;;;;24.73;15.38;;;;;;;7.10;100.00;101055.91;5031233;28;20022;-72
2023/12/29 09:32:58;;;;;;;25.63;15.50;;;;;;;7.12;100.00;101033.78;5030970;28;20491;-71
2023/12/29 09:35:24;;;;;;;24.65;16.40;;;;;;;7.32;100.00;101049.50;5031453;28;20029;-70
2023/12/29 09:37:49;;;;;;;26.10;15.85;;;;;;;7.52;100.00;101040.41;5031240;28;20040;-72
2023/12/29 09:40:15;;;;;;;25.70;16.33;;;;;;;7.58;100.00;101015.94;5030984;28;20037;-77
2023/12/29 09:42:44;;;;;;;24.17;16.48;;;;;;;7.90;100.00;101031.41;5031056;28;20029;-70
2023/12/29 09:45:12;;;;;;;24.05;15.75;;;;;;;7.98;100.00;101029.31;5031037;28;20034;-71
2023/12/29 09:47:43;;;;;;;23.55;16.17;;;;;;;8.05;100.00;101022.00;5031006;28;20026;-71
2023/12/29 09:50:13;;;;;;;22.90;14.38;;;;;;;8.26;100.00;101017.19;5030961;28;20391;-71
2023/12/29 09:52:40;;;;;;;21.27;14.52;;;;;;;8.30;100.00;100995.09;5030817;28;20121;-72
2023/12/29 09:55:10;;;;;;;20.55;12.75;;;;;;;8.58;100.00;101009.47;5031118;28;20053;-73
2023/12/29 09:57:36;;;;;;;;;;;;;;;8.72;100.00;101005.94;5031601;28;20377;-70
2023/12/29 10:00:02;;;;;;;26.25;14.73;;;;;;;8.77;100.00;101013.03;5030750;28;20339;-74
2023/12/29 10:02:28;;;;;;;18.52;12.30;;;;;;;8.99;100.00;101005.59;5030585;28;20040;-72
2023/12/29 10:04:54;;;;;;;18.50;13.32;;;;;;;8.89;100.00;100945.00;5031526;28;20037;-72
2023/12/29 10:07:28;;;;;;;19.05;12.80;;;;;;;9.39;100.00;100994.78;5026380;28;20561;-74
2023/12/29 10:10:17;;;;;;;41.22;24.60;;;;;;;9.49;100.00;100996.09;5034274;28;20044;-73
2023/12/29 10:12:47;;;;;;;20.23;14.00;;;;;;;9.61;100.00;100987.19;5037272;28;20516;-73
2023/12/29 10:15:19;;;;;;;20.20;11.63;;;;;;;9.71;100.00;100990.31;5036296;28;20049;-71
2023/12/29 10:18:02;;;;;;;19.70;13.23;;;;;;;9.15;99.74;100864.75;4981356;28;20095;-72
2023/12/29 10:20:59;;;;;;;16.33;11.50;;;;;;;9.88;99.77;100978.25;5039881;28;20036;-75
2023/12/29 10:23:43;;;;;;;23.33;14.77;;;;;;;9.97;98.74;100966.59;5022697;28;20034;-73
2023/12/29 10:26:11;;;;;;;19.05;12.10;;;;;;;10.03;97.80;100970.34;5043149;28;20041;-71
2023/12/29 10:28:37;;;;;;;22.05;14.02;;;;;;;9.94;98.10;100957.00;5040515;28;20117;-75
2023/12/29 10:31:04;;;;;;;22.20;13.60;;;;;;;10.11;98.42;100969.84;5045566;28;20840;-75
2023/12/29 10:33:32;;;;;;;15.27;10.07;;;;;;;10.20;97.91;100962.50;5041024;28;20731;-75
2023/12/29 10:36:06;;;;;;;18.63;11.38;;;;;;;10.17;98.45;100963.25;5045648;28;20040;-74
2023/12/29 10:38:32;;;;;;;20.83;12.60;;;;;;;9.87;98.25;100914.56;5045354;28;20029;-73
2023/12/29 10:41:18;;;;;;;17.38;11.50;;;;;;;10.19;98.97;100959.06;5050931;28;20033;-74
2023/12/29 10:43:47;;;;;;;17.27;11.65;;;;;;;10.28;99.39;100942.22;5044629;28;20049;-73
2023/12/29 10:46:12;;;;;;;14.33;9.70;;;;;;;10.24;100.00;100930.00;5040664;28;20044;-73
2023/12/29 10:48:39;;;;;;;16.70;9.68;;;;;;;10.42;100.00;100943.78;5033008;28;20041;-74
2023/12/29 10:51:06;;;;;;;15.63;8.93;;;;;;;10.57;100.00;100946.16;5016417;28;20100;-74
2023/12/29 10:53:34;;;;;;;14.23;8.70;;;;;;;10.63;100.00;100932.63;5014378;28;20061;-75
2023/12/29 10:56:00;;;;;;;12.43;8.15;;;;;;;10.62;99.87;100905.94;5014365;28;20029;-73
2023/12/29 10:58:29;;;;;;;14.88;8.90;;;;;;;10.44;100.00;100859.56;5014414;28;20022;-74
2023/12/29 11:00:56;;;;;;;13.48;8.75;;;;;;;10.89;99.44;100902.78;5014218;28;20540;-74
2023/12/29 11:03:22;;;;;;;14.43;9.02;;;;;;;11.05;100.00;100924.97;5014182;28;20120;-74
2023/12/29 11:05:48;;;;;;;15.98;9.73;;;;;;;11.13;100.00;100918.41;5013968;28;20117;-73
2023/12/29 11:08:20;;;;;;;12.50;8.52;;;;;;;11.19;100.00;100902.31;5014260;28;20038;-74